sensor_id;sensor_type;location;lat;lon;timestamp;P1;durP1;ratioP1;P2;durP2;ratioP2
52494;SDS011;38405;53.212;5.660;2023-03-26T00:00:43;20.17;;;3.72;;
52494;SDS011;38405;53.212;5.660;2023-03-26T00:03:09;18.13;;;3.47;;
52494;SDS011;38405;53.212;5.660;2023-03-26T00:05:39;20.20;;;3.30;;
52494;SDS011;38405;53.212;5.660;2023-03-26T00:08:05;30.25;;;4.25;;
52494;SDS011;38405;53.212;5.660;2023-03-26T00:10:33;16.27;;;2.80;;
52494;SDS011;38405;53.212;5.660;2023-03-26T00:13:00;16.15;;;3.13;;
52494;SDS011;38405;53.212;5.660;2023-03-26T00:15:26;26.05;;;3.40;;
52494;SDS011;38405;53.212;5.660;2023-03-26T00:17:52;19.98;;;3.33;;
52494;SDS011;38405;53.212;5.660;2023-03-26T00:20:18;18.17;;;3.60;;
52494;SDS011;38405;53.212;5.660;2023-03-26T00:22:44;26.92;;;3.85;;
52494;SDS011;38405;53.212;5.660;2023-03-26T00:25:10;20.77;;;3.63;;
52494;SDS011;38405;53.212;5.660;2023-03-26T00:27:35;18.05;;;3.22;;
52494;SDS011;38405;53.212;5.660;2023-03-26T00:30:02;19.90;;;3.30;;
52494;SDS011;38405;53.212;5.660;2023-03-26T00:32:31;24.98;;;4.25;;
52494;SDS011;38405;53.212;5.660;2023-03-26T00:34:57;25.83;;;3.40;;
52494;SDS011;38405;53.212;5.660;2023-03-26T00:37:24;21.40;;;3.55;;
52494;SDS011;38405;53.212;5.660;2023-03-26T00:39:54;20.23;;;3.45;;
52494;SDS011;38405;53.212;5.660;2023-03-26T00:42:34;26.48;;;4.28;;
52494;SDS011;38405;53.212;5.660;2023-03-26T00:45:01;16.35;;;3.20;;
52494;SDS011;38405;53.212;5.660;2023-03-26T00:47:28;17.05;;;3.58;;
52494;SDS011;38405;53.212;5.660;2023-03-26T00:49:54;25.88;;;3.97;;
52494;SDS011;38405;53.212;5.660;2023-03-26T00:52:21;17.58;;;2.97;;
52494;SDS011;38405;53.212;5.660;2023-03-26T00:54:49;16.00;;;3.85;;
52494;SDS011;38405;53.212;5.660;2023-03-26T00:57:16;19.13;;;3.25;;
52494;SDS011;38405;53.212;5.660;2023-03-26T00:59:45;28.65;;;3.42;;
52494;SDS011;38405;53.212;5.660;2023-03-26T01:02:15;21.90;;;2.75;;
52494;SDS011;38405;53.212;5.660;2023-03-26T01:04:45;18.83;;;3.70;;
52494;SDS011;38405;53.212;5.660;2023-03-26T01:07:26;21.63;;;3.38;;
52494;SDS011;38405;53.212;5.660;2023-03-26T01:09:56;14.73;;;2.92;;
52494;SDS011;38405;53.212;5.660;2023-03-26T01:12:25;23.38;;;4.60;;
52494;SDS011;38405;53.212;5.660;2023-03-26T01:14:53;25.85;;;3.85;;
52494;SDS011;38405;53.212;5.660;2023-03-26T01:17:24;20.10;;;3.30;;
52494;SDS011;38405;53.212;5.660;2023-03-26T01:20:08;17.50;;;3.15;;
52494;SDS011;38405;53.212;5.660;2023-03-26T01:22:48;21.15;;;3.45;;
52494;SDS011;38405;53.212;5.660;2023-03-26T01:25:16;20.02;;;3.15;;
52494;SDS011;38405;53.212;5.660;2023-03-26T01:27:52;22.45;;;3.35;;
52494;SDS011;38405;53.212;5.660;2023-03-26T01:30:29;22.15;;;3.30;;
52494;SDS011;38405;53.212;5.660;2023-03-26T01:39:06;22.73;;;3.67;;
52494;SDS011;38405;53.212;5.660;2023-03-26T01:41:46;14.02;;;2.58;;
52494;SDS011;38405;53.212;5.660;2023-03-26T01:44:21;21.98;;;3.47;;
52494;SDS011;38405;53.212;5.660;2023-03-26T01:46:53;21.65;;;4.18;;
52494;SDS011;38405;53.212;5.660;2023-03-26T01:49:20;23.98;;;4.20;;
52494;SDS011;38405;53.212;5.660;2023-03-26T01:51:46;20.08;;;3.30;;
52494;SDS011;38405;53.212;5.660;2023-03-26T01:54:14;22.83;;;3.95;;
52494;SDS011;38405;53.212;5.660;2023-03-26T01:56:47;17.90;;;3.00;;
52494;SDS011;38405;53.212;5.660;2023-03-26T01:59:18;19.23;;;3.35;;
52494;SDS011;38405;53.212;5.660;2023-03-26T02:02:12;17.92;;;3.65;;
52494;SDS011;38405;53.212;5.660;2023-03-26T02:10:16;22.83;;;3.53;;
52494;SDS011;38405;53.212;5.660;2023-03-26T02:12:48;21.20;;;3.58;;
52494;SDS011;38405;53.212;5.660;2023-03-26T02:15:15;24.20;;;2.88;;
52494;SDS011;38405;53.212;5.660;2023-03-26T02:17:41;18.10;;;3.10;;
52494;SDS011;38405;53.212;5.660;2023-03-26T02:20:08;19.35;;;3.13;;
52494;SDS011;38405;53.212;5.660;2023-03-26T02:22:38;16.52;;;3.10;;
52494;SDS011;38405;53.212;5.660;2023-03-26T02:25:09;13.05;;;3.30;;
52494;SDS011;38405;53.212;5.660;2023-03-26T02:27:37;21.60;;;3.17;;
52494;SDS011;38405;53.212;5.660;2023-03-26T02:30:04;8.95;;;2.20;;
52494;SDS011;38405;53.212;5.660;2023-03-26T02:32:31;10.93;;;2.35;;
52494;SDS011;38405;53.212;5.660;2023-03-26T02:34:57;12.48;;;2.67;;
52494;SDS011;38405;53.212;5.660;2023-03-26T02:37:22;16.20;;;3.13;;
52494;SDS011;38405;53.212;5.660;2023-03-26T02:39:48;12.40;;;3.38;;
52494;SDS011;38405;53.212;5.660;2023-03-26T02:42:14;16.35;;;3.35;;
52494;SDS011;38405;53.212;5.660;2023-03-26T02:44:40;17.20;;;2.67;;
52494;SDS011;38405;53.212;5.660;2023-03-26T02:47:06;11.13;;;2.35;;
52494;SDS011;38405;53.212;5.660;2023-03-26T02:49:32;15.02;;;3.10;;
52494;SDS011;38405;53.212;5.660;2023-03-26T02:51:58;11.82;;;2.22;;
52494;SDS011;38405;53.212;5.660;2023-03-26T02:54:24;18.38;;;3.67;;
52494;SDS011;38405;53.212;5.660;2023-03-26T02:56:50;12.63;;;2.45;;
52494;SDS011;38405;53.212;5.660;2023-03-26T02:59:15;15.77;;;3.58;;
52494;SDS011;38405;53.212;5.660;2023-03-26T03:01:41;10.55;;;2.67;;
52494;SDS011;38405;53.212;5.660;2023-03-26T03:04:11;17.75;;;2.92;;
52494;SDS011;38405;53.212;5.660;2023-03-26T03:06:37;12.82;;;1.98;;
52494;SDS011;38405;53.212;5.660;2023-03-26T03:09:05;13.23;;;2.78;;
52494;SDS011;38405;53.212;5.660;2023-03-26T03:11:35;12.52;;;2.28;;
52494;SDS011;38405;53.212;5.660;2023-03-26T03:14:02;18.15;;;2.63;;
52494;SDS011;38405;53.212;5.660;2023-03-26T03:16:28;12.63;;;2.63;;
52494;SDS011;38405;53.212;5.660;2023-03-26T03:18:54;19.77;;;2.55;;
52494;SDS011;38405;53.212;5.660;2023-03-26T03:21:23;17.65;;;2.63;;
52494;SDS011;38405;53.212;5.660;2023-03-26T03:23:51;13.43;;;2.83;;
52494;SDS011;38405;53.212;5.660;2023-03-26T03:26:18;15.05;;;2.58;;
52494;SDS011;38405;53.212;5.660;2023-03-26T03:28:46;12.30;;;2.72;;
52494;SDS011;38405;53.212;5.660;2023-03-26T03:31:12;20.40;;;3.60;;
52494;SDS011;38405;53.212;5.660;2023-03-26T03:33:38;14.45;;;3.15;;
52494;SDS011;38405;53.212;5.660;2023-03-26T03:36:07;17.40;;;2.95;;
52494;SDS011;38405;53.212;5.660;2023-03-26T03:38:37;23.60;;;3.33;;
52494;SDS011;38405;53.212;5.660;2023-03-26T03:41:04;18.58;;;3.38;;
52494;SDS011;38405;53.212;5.660;2023-03-26T03:43:30;26.17;;;3.67;;
52494;SDS011;38405;53.212;5.660;2023-03-26T03:45:57;22.92;;;3.47;;
52494;SDS011;38405;53.212;5.660;2023-03-26T03:48:23;16.48;;;2.80;;
52494;SDS011;38405;53.212;5.660;2023-03-26T03:50:49;18.75;;;3.10;;
52494;SDS011;38405;53.212;5.660;2023-03-26T03:53:16;20.70;;;3.28;;
52494;SDS011;38405;53.212;5.660;2023-03-26T03:55:42;22.38;;;3.45;;
52494;SDS011;38405;53.212;5.660;2023-03-26T03:58:16;18.48;;;3.58;;
52494;SDS011;38405;53.212;5.660;2023-03-26T04:00:46;20.23;;;3.58;;
52494;SDS011;38405;53.212;5.660;2023-03-26T04:03:12;19.85;;;2.95;;
52494;SDS011;38405;53.212;5.660;2023-03-26T04:05:38;21.60;;;3.20;;
52494;SDS011;38405;53.212;5.660;2023-03-26T04:08:04;23.80;;;3.67;;
52494;SDS011;38405;53.212;5.660;2023-03-26T04:10:33;24.83;;;3.65;;
52494;SDS011;38405;53.212;5.660;2023-03-26T04:12:59;20.30;;;2.90;;
52494;SDS011;38405;53.212;5.660;2023-03-26T04:15:24;19.40;;;3.20;;
52494;SDS011;38405;53.212;5.660;2023-03-26T04:17:50;20.48;;;2.83;;
52494;SDS011;38405;53.212;5.660;2023-03-26T04:20:16;15.70;;;2.63;;
52494;SDS011;38405;53.212;5.660;2023-03-26T04:22:43;15.15;;;2.50;;
52494;SDS011;38405;53.212;5.660;2023-03-26T04:25:10;13.02;;;2.63;;
52494;SDS011;38405;53.212;5.660;2023-03-26T04:27:36;13.15;;;2.60;;
52494;SDS011;38405;53.212;5.660;2023-03-26T04:30:06;21.00;;;3.13;;
52494;SDS011;38405;53.212;5.660;2023-03-26T04:32:34;12.75;;;2.58;;
52494;SDS011;38405;53.212;5.660;2023-03-26T04:35:02;17.17;;;2.80;;
52494;SDS011;38405;53.212;5.660;2023-03-26T04:37:33;16.70;;;2.80;;
52494;SDS011;38405;53.212;5.660;2023-03-26T04:40:04;13.45;;;2.55;;
52494;SDS011;38405;53.212;5.660;2023-03-26T04:42:37;20.42;;;2.88;;
52494;SDS011;38405;53.212;5.660;2023-03-26T04:45:10;11.85;;;2.85;;
52494;SDS011;38405;53.212;5.660;2023-03-26T04:47:36;16.88;;;2.50;;
52494;SDS011;38405;53.212;5.660;2023-03-26T04:50:04;18.73;;;3.10;;
52494;SDS011;38405;53.212;5.660;2023-03-26T04:52:31;20.17;;;2.83;;
52494;SDS011;38405;53.212;5.660;2023-03-26T04:54:57;26.10;;;3.78;;
52494;SDS011;38405;53.212;5.660;2023-03-26T04:57:25;10.93;;;2.67;;
52494;SDS011;38405;53.212;5.660;2023-03-26T04:59:58;14.05;;;2.85;;
52494;SDS011;38405;53.212;5.660;2023-03-26T05:02:24;21.77;;;3.25;;
52494;SDS011;38405;53.212;5.660;2023-03-26T05:04:50;19.58;;;2.80;;
52494;SDS011;38405;53.212;5.660;2023-03-26T05:07:17;14.35;;;2.80;;
52494;SDS011;38405;53.212;5.660;2023-03-26T05:09:45;17.85;;;3.08;;
52494;SDS011;38405;53.212;5.660;2023-03-26T05:12:10;19.40;;;2.90;;
52494;SDS011;38405;53.212;5.660;2023-03-26T05:14:36;16.33;;;3.28;;
52494;SDS011;38405;53.212;5.660;2023-03-26T05:17:02;13.52;;;2.88;;
52494;SDS011;38405;53.212;5.660;2023-03-26T05:19:30;10.73;;;2.38;;
52494;SDS011;38405;53.212;5.660;2023-03-26T05:21:56;13.38;;;2.95;;
52494;SDS011;38405;53.212;5.660;2023-03-26T05:24:22;17.95;;;3.65;;
52494;SDS011;38405;53.212;5.660;2023-03-26T05:26:49;17.23;;;3.13;;
52494;SDS011;38405;53.212;5.660;2023-03-26T05:29:15;13.75;;;2.90;;
52494;SDS011;38405;53.212;5.660;2023-03-26T05:31:41;13.18;;;2.60;;
52494;SDS011;38405;53.212;5.660;2023-03-26T05:34:08;21.88;;;3.72;;
52494;SDS011;38405;53.212;5.660;2023-03-26T05:36:34;14.35;;;2.90;;
52494;SDS011;38405;53.212;5.660;2023-03-26T05:39:00;16.15;;;2.58;;
52494;SDS011;38405;53.212;5.660;2023-03-26T05:41:27;15.50;;;2.72;;
52494;SDS011;38405;53.212;5.660;2023-03-26T05:43:53;16.70;;;2.67;;
52494;SDS011;38405;53.212;5.660;2023-03-26T05:46:18;15.50;;;3.17;;
52494;SDS011;38405;53.212;5.660;2023-03-26T05:48:46;11.45;;;2.40;;
52494;SDS011;38405;53.212;5.660;2023-03-26T05:51:12;17.75;;;2.83;;
52494;SDS011;38405;53.212;5.660;2023-03-26T05:53:39;14.32;;;3.30;;
52494;SDS011;38405;53.212;5.660;2023-03-26T05:56:05;15.65;;;2.40;;
52494;SDS011;38405;53.212;5.660;2023-03-26T05:58:32;15.43;;;2.65;;
52494;SDS011;38405;53.212;5.660;2023-03-26T06:01:03;18.20;;;3.10;;
52494;SDS011;38405;53.212;5.660;2023-03-26T06:03:32;12.88;;;2.45;;
52494;SDS011;38405;53.212;5.660;2023-03-26T06:05:59;16.40;;;2.70;;
52494;SDS011;38405;53.212;5.660;2023-03-26T06:08:25;18.88;;;2.92;;
52494;SDS011;38405;53.212;5.660;2023-03-26T06:10:56;19.48;;;3.08;;
52494;SDS011;38405;53.212;5.660;2023-03-26T06:13:23;21.92;;;3.67;;
52494;SDS011;38405;53.212;5.660;2023-03-26T06:15:52;12.27;;;2.65;;
52494;SDS011;38405;53.212;5.660;2023-03-26T06:18:17;17.90;;;3.08;;
52494;SDS011;38405;53.212;5.660;2023-03-26T06:20:44;11.13;;;2.90;;
52494;SDS011;38405;53.212;5.660;2023-03-26T06:23:10;16.27;;;2.70;;
52494;SDS011;38405;53.212;5.660;2023-03-26T06:25:36;12.55;;;2.83;;
52494;SDS011;38405;53.212;5.660;2023-03-26T06:28:02;16.00;;;3.35;;
52494;SDS011;38405;53.212;5.660;2023-03-26T06:30:31;10.45;;;1.98;;
52494;SDS011;38405;53.212;5.660;2023-03-26T06:32:56;17.00;;;2.88;;
52494;SDS011;38405;53.212;5.660;2023-03-26T06:35:22;14.00;;;3.05;;
52494;SDS011;38405;53.212;5.660;2023-03-26T06:37:48;15.10;;;3.13;;
52494;SDS011;38405;53.212;5.660;2023-03-26T06:40:14;11.52;;;2.60;;
52494;SDS011;38405;53.212;5.660;2023-03-26T06:42:40;27.05;;;3.40;;
52494;SDS011;38405;53.212;5.660;2023-03-26T06:45:05;14.93;;;3.00;;
52494;SDS011;38405;53.212;5.660;2023-03-26T06:47:32;9.13;;;2.38;;
52494;SDS011;38405;53.212;5.660;2023-03-26T06:49:57;13.18;;;3.22;;
52494;SDS011;38405;53.212;5.660;2023-03-26T06:52:23;13.95;;;2.90;;
52494;SDS011;38405;53.212;5.660;2023-03-26T06:54:49;15.60;;;3.20;;
52494;SDS011;38405;53.212;5.660;2023-03-26T06:57:15;19.17;;;2.95;;
52494;SDS011;38405;53.212;5.660;2023-03-26T06:59:41;17.65;;;3.33;;
52494;SDS011;38405;53.212;5.660;2023-03-26T07:02:06;20.55;;;3.25;;
52494;SDS011;38405;53.212;5.660;2023-03-26T07:04:35;17.88;;;3.20;;
52494;SDS011;38405;53.212;5.660;2023-03-26T07:07:01;14.75;;;2.85;;
52494;SDS011;38405;53.212;5.660;2023-03-26T07:09:27;11.15;;;3.13;;
52494;SDS011;38405;53.212;5.660;2023-03-26T07:11:54;21.60;;;3.47;;
52494;SDS011;38405;53.212;5.660;2023-03-26T07:14:21;13.57;;;2.63;;
52494;SDS011;38405;53.212;5.660;2023-03-26T07:16:48;11.10;;;2.60;;
52494;SDS011;38405;53.212;5.660;2023-03-26T07:19:17;9.05;;;2.30;;
52494;SDS011;38405;53.212;5.660;2023-03-26T07:21:42;12.20;;;2.67;;
52494;SDS011;38405;53.212;5.660;2023-03-26T07:24:10;15.77;;;3.03;;
52494;SDS011;38405;53.212;5.660;2023-03-26T07:26:43;14.23;;;3.08;;
52494;SDS011;38405;53.212;5.660;2023-03-26T07:29:40;9.63;;;2.35;;
52494;SDS011;38405;53.212;5.660;2023-03-26T07:32:13;13.43;;;2.97;;
52494;SDS011;38405;53.212;5.660;2023-03-26T07:46:15;12.50;;;2.60;;
52494;SDS011;38405;53.212;5.660;2023-03-26T07:48:48;19.63;;;3.13;;
52494;SDS011;38405;53.212;5.660;2023-03-26T07:51:15;14.13;;;2.75;;
52494;SDS011;38405;53.212;5.660;2023-03-26T07:53:42;17.23;;;2.63;;
52494;SDS011;38405;53.212;5.660;2023-03-26T08:04:34;14.30;;;3.38;;
52494;SDS011;38405;53.212;5.660;2023-03-26T08:09:40;15.38;;;2.60;;
52494;SDS011;38405;53.212;5.660;2023-03-26T08:12:23;13.57;;;2.42;;
52494;SDS011;38405;53.212;5.660;2023-03-26T08:20:37;16.30;;;2.95;;
52494;SDS011;38405;53.212;5.660;2023-03-26T08:23:21;12.70;;;1.95;;
52494;SDS011;38405;53.212;5.660;2023-03-26T08:32:05;16.15;;;2.08;;
52494;SDS011;38405;53.212;5.660;2023-03-26T08:34:37;15.18;;;2.78;;
52494;SDS011;38405;53.212;5.660;2023-03-26T08:37:03;10.52;;;2.42;;
52494;SDS011;38405;53.212;5.660;2023-03-26T08:39:29;19.70;;;2.80;;
52494;SDS011;38405;53.212;5.660;2023-03-26T09:10:13;14.00;;;2.35;;
52494;SDS011;38405;53.212;5.660;2023-03-26T09:49:29;9.32;;;2.60;;
52494;SDS011;38405;53.212;5.660;2023-03-26T10:00:49;13.15;;;2.50;;
52494;SDS011;38405;53.212;5.660;2023-03-26T10:03:35;13.00;;;2.40;;
52494;SDS011;38405;53.212;5.660;2023-03-26T10:09:34;12.88;;;2.40;;
52494;SDS011;38405;53.212;5.660;2023-03-26T10:12:14;10.68;;;2.10;;
52494;SDS011;38405;53.212;5.660;2023-03-26T10:17:54;9.18;;;1.85;;
52494;SDS011;38405;53.212;5.660;2023-03-26T10:20:48;10.73;;;2.15;;
52494;SDS011;38405;53.212;5.660;2023-03-26T10:36:56;11.80;;;1.75;;
52494;SDS011;38405;53.212;5.660;2023-03-26T10:39:45;13.02;;;1.92;;
52494;SDS011;38405;53.212;5.660;2023-03-26T10:45:10;12.00;;;2.10;;
52494;SDS011;38405;53.212;5.660;2023-03-26T10:47:51;7.93;;;1.83;;
52494;SDS011;38405;53.212;5.660;2023-03-26T10:55:51;12.45;;;2.30;;
52494;SDS011;38405;53.212;5.660;2023-03-26T10:58:27;9.18;;;2.40;;
52494;SDS011;38405;53.212;5.660;2023-03-26T11:00:58;9.05;;;2.03;;
52494;SDS011;38405;53.212;5.660;2023-03-26T11:03:37;9.82;;;2.40;;
52494;SDS011;38405;53.212;5.660;2023-03-26T11:06:25;7.80;;;2.17;;
52494;SDS011;38405;53.212;5.660;2023-03-26T11:09:21;7.70;;;1.70;;
52494;SDS011;38405;53.212;5.660;2023-03-26T11:20:12;12.25;;;2.35;;
52494;SDS011;38405;53.212;5.660;2023-03-26T11:28:40;6.93;;;1.93;;
52494;SDS011;38405;53.212;5.660;2023-03-26T11:35:06;9.95;;;2.28;;
52494;SDS011;38405;53.212;5.660;2023-03-26T11:37:33;14.48;;;3.13;;
52494;SDS011;38405;53.212;5.660;2023-03-26T11:40:08;5.78;;;2.20;;
52494;SDS011;38405;53.212;5.660;2023-03-26T11:42:38;10.20;;;1.92;;
52494;SDS011;38405;53.212;5.660;2023-03-26T11:45:11;7.72;;;1.98;;
52494;SDS011;38405;53.212;5.660;2023-03-26T11:47:50;9.40;;;1.70;;
52494;SDS011;38405;53.212;5.660;2023-03-26T11:52:47;8.90;;;1.60;;
52494;SDS011;38405;53.212;5.660;2023-03-26T11:55:13;7.50;;;2.22;;
52494;SDS011;38405;53.212;5.660;2023-03-26T11:57:40;7.97;;;1.42;;
52494;SDS011;38405;53.212;5.660;2023-03-26T12:00:15;11.27;;;2.00;;
52494;SDS011;38405;53.212;5.660;2023-03-26T12:02:48;10.60;;;2.42;;
52494;SDS011;38405;53.212;5.660;2023-03-26T12:05:20;8.55;;;1.42;;
52494;SDS011;38405;53.212;5.660;2023-03-26T12:08:00;9.32;;;1.92;;
52494;SDS011;38405;53.212;5.660;2023-03-26T12:10:37;10.70;;;2.28;;
52494;SDS011;38405;53.212;5.660;2023-03-26T12:13:17;10.70;;;2.15;;
52494;SDS011;38405;53.212;5.660;2023-03-26T12:16:19;5.65;;;1.50;;
52494;SDS011;38405;53.212;5.660;2023-03-26T12:18:46;6.57;;;1.55;;
52494;SDS011;38405;53.212;5.660;2023-03-26T12:21:25;10.75;;;1.73;;
52494;SDS011;38405;53.212;5.660;2023-03-26T12:26:30;11.75;;;2.60;;
52494;SDS011;38405;53.212;5.660;2023-03-26T12:29:08;11.20;;;2.17;;
52494;SDS011;38405;53.212;5.660;2023-03-26T12:31:50;8.82;;;2.00;;
52494;SDS011;38405;53.212;5.660;2023-03-26T12:34:21;9.90;;;1.92;;
52494;SDS011;38405;53.212;5.660;2023-03-26T12:36:54;7.28;;;2.05;;
52494;SDS011;38405;53.212;5.660;2023-03-26T12:39:25;8.52;;;1.83;;
52494;SDS011;38405;53.212;5.660;2023-03-26T12:41:55;8.93;;;2.15;;
52494;SDS011;38405;53.212;5.660;2023-03-26T12:49:56;7.95;;;1.70;;
52494;SDS011;38405;53.212;5.660;2023-03-26T12:52:30;9.27;;;2.05;;
52494;SDS011;38405;53.212;5.660;2023-03-26T12:55:18;7.97;;;1.70;;
52494;SDS011;38405;53.212;5.660;2023-03-26T12:58:16;8.48;;;1.92;;
52494;SDS011;38405;53.212;5.660;2023-03-26T13:01:13;6.00;;;1.80;;
52494;SDS011;38405;53.212;5.660;2023-03-26T13:04:03;6.82;;;1.65;;
52494;SDS011;38405;53.212;5.660;2023-03-26T13:07:50;8.00;;;1.80;;
52494;SDS011;38405;53.212;5.660;2023-03-26T13:20:23;7.25;;;1.92;;
52494;SDS011;38405;53.212;5.660;2023-03-26T13:22:58;12.07;;;1.45;;
52494;SDS011;38405;53.212;5.660;2023-03-26T13:31:04;9.02;;;1.67;;
52494;SDS011;38405;53.212;5.660;2023-03-26T13:33:39;13.25;;;4.85;;
52494;SDS011;38405;53.212;5.660;2023-03-26T13:49:18;6.57;;;1.52;;
52494;SDS011;38405;53.212;5.660;2023-03-26T13:52:02;7.50;;;1.95;;
52494;SDS011;38405;53.212;5.660;2023-03-26T13:54:36;11.57;;;2.05;;
52494;SDS011;38405;53.212;5.660;2023-03-26T13:59:52;6.85;;;1.67;;
52494;SDS011;38405;53.212;5.660;2023-03-26T14:02:38;12.43;;;1.52;;
52494;SDS011;38405;53.212;5.660;2023-03-26T14:05:06;9.15;;;1.50;;
52494;SDS011;38405;53.212;5.660;2023-03-26T14:10:28;9.20;;;1.77;;
52494;SDS011;38405;53.212;5.660;2023-03-26T14:13:07;6.13;;;1.48;;
52494;SDS011;38405;53.212;5.660;2023-03-26T14:15:50;9.07;;;2.08;;
52494;SDS011;38405;53.212;5.660;2023-03-26T14:18:30;14.43;;;1.80;;
52494;SDS011;38405;53.212;5.660;2023-03-26T14:35:27;11.07;;;2.10;;
52494;SDS011;38405;53.212;5.660;2023-03-26T14:43:35;9.70;;;1.90;;
52494;SDS011;38405;53.212;5.660;2023-03-26T14:52:02;6.35;;;1.88;;
52494;SDS011;38405;53.212;5.660;2023-03-26T14:54:49;11.02;;;1.77;;
52494;SDS011;38405;53.212;5.660;2023-03-26T15:06:28;14.27;;;2.03;;
52494;SDS011;38405;53.212;5.660;2023-03-26T15:37:27;13.27;;;2.50;;
52494;SDS011;38405;53.212;5.660;2023-03-26T15:45:36;9.57;;;1.95;;
52494;SDS011;38405;53.212;5.660;2023-03-26T15:50:54;7.22;;;1.80;;
52494;SDS011;38405;53.212;5.660;2023-03-26T16:13:36;9.38;;;1.60;;
52494;SDS011;38405;53.212;5.660;2023-03-26T16:16:15;10.00;;;2.35;;
52494;SDS011;38405;53.212;5.660;2023-03-26T16:22:00;8.07;;;2.20;;
52494;SDS011;38405;53.212;5.660;2023-03-26T16:24:32;11.57;;;2.38;;
52494;SDS011;38405;53.212;5.660;2023-03-26T16:32:56;6.72;;;1.60;;
52494;SDS011;38405;53.212;5.660;2023-03-26T16:35:34;6.63;;;1.77;;
52494;SDS011;38405;53.212;5.660;2023-03-26T16:38:22;10.25;;;1.60;;
52494;SDS011;38405;53.212;5.660;2023-03-26T16:40:57;9.30;;;1.70;;
52494;SDS011;38405;53.212;5.660;2023-03-26T16:49:16;8.23;;;1.50;;
52494;SDS011;38405;53.212;5.660;2023-03-26T16:58:08;11.40;;;1.70;;
52494;SDS011;38405;53.212;5.660;2023-03-26T17:03:30;6.68;;;1.13;;
52494;SDS011;38405;53.212;5.660;2023-03-26T17:22:22;8.43;;;2.08;;
52494;SDS011;38405;53.212;5.660;2023-03-26T17:25:23;11.07;;;1.83;;
52494;SDS011;38405;53.212;5.660;2023-03-26T17:33:41;6.05;;;1.40;;
52494;SDS011;38405;53.212;5.660;2023-03-26T17:41:11;12.27;;;1.70;;
52494;SDS011;38405;53.212;5.660;2023-03-26T17:51:46;9.55;;;1.95;;
52494;SDS011;38405;53.212;5.660;2023-03-26T17:59:38;7.60;;;1.50;;
52494;SDS011;38405;53.212;5.660;2023-03-26T18:02:10;13.27;;;1.77;;
52494;SDS011;38405;53.212;5.660;2023-03-26T18:04:42;11.88;;;2.08;;
52494;SDS011;38405;53.212;5.660;2023-03-26T18:18:42;12.32;;;2.55;;
52494;SDS011;38405;53.212;5.660;2023-03-26T18:21:20;18.40;;;3.00;;
52494;SDS011;38405;53.212;5.660;2023-03-26T18:24:01;10.98;;;2.63;;
52494;SDS011;38405;53.212;5.660;2023-03-26T18:26:36;9.63;;;2.88;;
52494;SDS011;38405;53.212;5.660;2023-03-26T18:31:39;14.60;;;3.10;;
52494;SDS011;38405;53.212;5.660;2023-03-26T18:34:11;9.38;;;2.85;;
52494;SDS011;38405;53.212;5.660;2023-03-26T18:36:42;18.15;;;2.75;;
52494;SDS011;38405;53.212;5.660;2023-03-26T18:39:10;9.05;;;1.88;;
52494;SDS011;38405;53.212;5.660;2023-03-26T18:41:37;7.00;;;1.90;;
52494;SDS011;38405;53.212;5.660;2023-03-26T18:44:06;7.55;;;1.85;;
52494;SDS011;38405;53.212;5.660;2023-03-26T18:46:41;8.30;;;1.90;;
52494;SDS011;38405;53.212;5.660;2023-03-26T18:49:11;9.45;;;2.30;;
52494;SDS011;38405;53.212;5.660;2023-03-26T18:51:39;11.55;;;1.73;;
52494;SDS011;38405;53.212;5.660;2023-03-26T18:54:08;11.05;;;1.75;;
52494;SDS011;38405;53.212;5.660;2023-03-26T18:56:41;5.72;;;1.20;;
52494;SDS011;38405;53.212;5.660;2023-03-26T18:59:27;10.05;;;2.25;;
52494;SDS011;38405;53.212;5.660;2023-03-26T19:01:56;19.48;;;2.20;;
52494;SDS011;38405;53.212;5.660;2023-03-26T19:04:26;13.85;;;2.30;;
52494;SDS011;38405;53.212;5.660;2023-03-26T19:06:57;6.57;;;1.63;;
52494;SDS011;38405;53.212;5.660;2023-03-26T19:09:23;8.38;;;1.83;;
52494;SDS011;38405;53.212;5.660;2023-03-26T19:11:58;7.35;;;1.95;;
52494;SDS011;38405;53.212;5.660;2023-03-26T19:14:32;5.75;;;1.58;;
52494;SDS011;38405;53.212;5.660;2023-03-26T19:17:15;8.20;;;1.90;;
52494;SDS011;38405;53.212;5.660;2023-03-26T19:19:40;10.77;;;2.00;;
52494;SDS011;38405;53.212;5.660;2023-03-26T19:22:07;9.20;;;1.98;;
52494;SDS011;38405;53.212;5.660;2023-03-26T19:24:36;6.63;;;1.98;;
52494;SDS011;38405;53.212;5.660;2023-03-26T19:27:02;9.48;;;2.03;;
52494;SDS011;38405;53.212;5.660;2023-03-26T19:29:32;8.63;;;1.80;;
52494;SDS011;38405;53.212;5.660;2023-03-26T19:32:01;11.93;;;2.92;;
52494;SDS011;38405;53.212;5.660;2023-03-26T19:34:39;7.03;;;1.60;;
52494;SDS011;38405;53.212;5.660;2023-03-26T19:39:49;7.70;;;2.35;;
52494;SDS011;38405;53.212;5.660;2023-03-26T19:42:22;6.45;;;1.58;;
52494;SDS011;38405;53.212;5.660;2023-03-26T19:44:53;14.13;;;2.33;;
52494;SDS011;38405;53.212;5.660;2023-03-26T19:47:24;11.60;;;1.88;;
52494;SDS011;38405;53.212;5.660;2023-03-26T19:49:55;10.35;;;2.17;;
52494;SDS011;38405;53.212;5.660;2023-03-26T19:52:24;12.35;;;1.90;;
52494;SDS011;38405;53.212;5.660;2023-03-26T19:55:21;8.88;;;1.50;;
52494;SDS011;38405;53.212;5.660;2023-03-26T19:57:51;6.55;;;1.30;;
52494;SDS011;38405;53.212;5.660;2023-03-26T20:00:16;12.25;;;2.10;;
52494;SDS011;38405;53.212;5.660;2023-03-26T20:02:43;10.02;;;2.03;;
52494;SDS011;38405;53.212;5.660;2023-03-26T20:05:20;10.30;;;1.70;;
52494;SDS011;38405;53.212;5.660;2023-03-26T20:07:53;11.43;;;1.83;;
52494;SDS011;38405;53.212;5.660;2023-03-26T20:10:21;6.10;;;1.40;;
52494;SDS011;38405;53.212;5.660;2023-03-26T20:12:47;4.22;;;1.30;;
52494;SDS011;38405;53.212;5.660;2023-03-26T20:15:20;6.68;;;1.73;;
52494;SDS011;38405;53.212;5.660;2023-03-26T20:17:48;8.18;;;1.15;;
52494;SDS011;38405;53.212;5.660;2023-03-26T20:20:16;9.57;;;1.38;;
52494;SDS011;38405;53.212;5.660;2023-03-26T20:22:43;7.07;;;1.30;;
52494;SDS011;38405;53.212;5.660;2023-03-26T20:25:14;6.32;;;1.23;;
52494;SDS011;38405;53.212;5.660;2023-03-26T20:27:44;5.60;;;1.33;;
52494;SDS011;38405;53.212;5.660;2023-03-26T20:30:11;6.25;;;1.70;;
52494;SDS011;38405;53.212;5.660;2023-03-26T20:32:40;6.82;;;1.40;;
52494;SDS011;38405;53.212;5.660;2023-03-26T20:37:43;14.18;;;2.42;;
52494;SDS011;38405;53.212;5.660;2023-03-26T20:40:09;8.43;;;1.90;;
52494;SDS011;38405;53.212;5.660;2023-03-26T20:42:36;5.32;;;1.45;;
52494;SDS011;38405;53.212;5.660;2023-03-26T20:45:10;10.38;;;3.00;;
52494;SDS011;38405;53.212;5.660;2023-03-26T20:47:42;5.95;;;1.50;;
52494;SDS011;38405;53.212;5.660;2023-03-26T20:50:13;10.85;;;1.75;;
52494;SDS011;38405;53.212;5.660;2023-03-26T20:52:41;7.80;;;1.48;;
52494;SDS011;38405;53.212;5.660;2023-03-26T20:55:14;9.15;;;2.00;;
52494;SDS011;38405;53.212;5.660;2023-03-26T20:57:42;7.55;;;1.75;;
52494;SDS011;38405;53.212;5.660;2023-03-26T21:00:10;12.20;;;1.42;;
52494;SDS011;38405;53.212;5.660;2023-03-26T21:02:45;8.38;;;1.65;;
52494;SDS011;38405;53.212;5.660;2023-03-26T21:05:11;9.82;;;2.40;;
52494;SDS011;38405;53.212;5.660;2023-03-26T21:07:42;5.70;;;1.98;;
52494;SDS011;38405;53.212;5.660;2023-03-26T21:10:09;6.90;;;2.15;;
52494;SDS011;38405;53.212;5.660;2023-03-26T21:12:43;7.43;;;2.20;;
52494;SDS011;38405;53.212;5.660;2023-03-26T21:15:14;5.63;;;1.67;;
52494;SDS011;38405;53.212;5.660;2023-03-26T21:17:41;3.00;;;0.95;;
52494;SDS011;38405;53.212;5.660;2023-03-26T21:20:07;2.72;;;1.42;;
52494;SDS011;38405;53.212;5.660;2023-03-26T21:28:02;6.53;;;1.40;;
52494;SDS011;38405;53.212;5.660;2023-03-26T21:30:38;8.02;;;1.48;;
52494;SDS011;38405;53.212;5.660;2023-03-26T21:33:04;5.30;;;1.25;;